Time;durP1;ratioP1;P1;durP2;ratioP2;P2;SDS_P1;SDS_P2;PMS_P1;PMS_P2;Temp;Humidity;BMP_temperature;BMP_pressure;BME280_temperature;BME280_humidity;BME280_pressure;Samples;Min_cycle;Max_cycle;Signal;HPM_P1;HPM_P2
2021/08/12 00:00:25;;;;;;;1.20;0.90;;;;;;;33.93;24.95;98657.97;5070865;28;20474;-83
2021/08/12 00:02:51;;;;;;;0.90;0.77;;;;;;;33.99;24.02;98652.38;5056252;28;20041;-84
2021/08/12 00:05:17;;;;;;;1.92;0.70;;;;;;;33.95;24.51;98657.47;5063829;28;20104;-84
2021/08/12 00:07:43;;;;;;;1.58;0.70;;;;;;;33.85;24.16;98659.63;5063826;28;20033;-84
2021/08/12 00:10:10;;;;;;;2.90;1.33;;;;;;;33.77;24.31;98661.25;5056709;28;20068;-83
2021/08/12 00:12:36;;;;;;;0.80;0.80;;;;;;;33.79;24.55;98660.78;5071386;28;20033;-84
2021/08/12 00:15:02;;;;;;;0.90;0.60;;;;;;;33.75;24.82;98666.66;5056515;28;20033;-84
2021/08/12 00:17:28;;;;;;;1.17;0.70;;;;;;;33.81;24.48;98661.06;5060734;28;20103;-83
2021/08/12 00:19:54;;;;;;;1.50;1.15;;;;;;;33.77;24.45;98671.88;5056655;28;20037;-83
2021/08/12 00:22:20;;;;;;;1.42;0.80;;;;;;;33.81;24.35;98678.97;5056178;28;20067;-83
2021/08/12 00:24:47;;;;;;;1.50;0.70;;;;;;;33.79;24.35;98681.53;5061546;28;20111;-84
2021/08/12 00:27:13;;;;;;;1.08;0.80;;;;;;;33.72;23.84;98681.88;5060227;28;20024;-84
2021/08/12 00:29:39;;;;;;;1.85;1.20;;;;;;;33.69;24.15;98688.56;5063486;28;20036;-83
2021/08/12 00:32:05;;;;;;;1.17;0.70;;;;;;;33.65;24.14;98687.97;5056216;28;20057;-83
2021/08/12 00:34:31;;;;;;;1.23;0.70;;;;;;;33.80;24.18;98687.97;5063550;28;20532;-83
2021/08/12 00:36:57;;;;;;;1.05;0.70;;;;;;;33.74;24.24;98696.44;5057418;28;20035;-83
2021/08/12 00:39:24;;;;;;;1.45;0.80;;;;;;;33.50;24.45;98689.91;5055898;28;20076;-83
2021/08/12 00:41:50;;;;;;;0.93;0.50;;;;;;;33.54;24.56;98690.53;5058437;28;20076;-83
2021/08/12 00:44:16;;;;;;;1.00;0.70;;;;;;;33.58;24.36;98682.63;5066932;28;20033;-83
2021/08/12 00:46:43;;;;;;;1.80;1.00;;;;;;;33.58;23.59;98681.84;5067916;28;20391;-82
2021/08/12 00:49:09;;;;;;;2.90;0.90;;;;;;;33.63;23.48;98684.00;5075199;28;20177;-83
2021/08/12 00:51:37;;;;;;;0.77;0.65;;;;;;;33.71;23.85;98673.81;5059118;28;20048;-83
2021/08/12 00:54:03;;;;;;;1.17;0.77;;;;;;;33.65;23.88;98675.78;5054984;28;20112;-83
2021/08/12 00:56:30;;;;;;;0.80;0.75;;;;;;;33.51;23.91;98673.63;5062652;28;20063;-83
2021/08/12 00:58:56;;;;;;;1.33;0.68;;;;;;;33.56;24.37;98684.38;5060602;28;20020;-83
2021/08/12 01:01:23;;;;;;;1.48;0.75;;;;;;;33.50;24.06;98678.53;5057026;28;20071;-83
2021/08/12 01:03:49;;;;;;;0.70;0.60;;;;;;;33.44;24.07;98683.31;5066001;28;20395;-83
2021/08/12 01:06:22;;;;;;;2.60;0.57;;;;;;;33.55;23.34;98683.59;5063266;28;20446;-83
2021/08/12 01:09:01;;;;;;;0.50;0.50;;;;;;;33.50;24.18;98680.56;5069523;28;20041;-83
2021/08/12 01:11:57;;;;;;;0.85;0.60;;;;;;;33.46;23.61;98688.53;5060346;28;20028;-83
2021/08/12 01:14:48;;;;;;;0.80;0.60;;;;;;;33.50;23.35;98681.38;5060454;28;20441;-84
2021/08/12 01:17:19;;;;;;;;;;;;;;;33.44;23.93;98683.31;5063828;28;20381;-84
2021/08/12 01:20:05;;;;;;;1.60;0.77;;;;;;;33.40;23.58;98683.47;5057367;28;20387;-84
2021/08/12 01:22:34;;;;;;;0.95;0.70;;;;;;;33.33;24.25;98688.75;5062131;28;20397;-84
2021/08/12 01:25:05;;;;;;;0.60;0.55;;;;;;;33.48;23.84;98692.47;5058833;28;20393;-83
2021/08/12 01:27:34;;;;;;;;;;;;;;;33.51;24.36;98690.72;5069653;28;20074;-83
2021/08/12 01:30:07;;;;;;;1.67;1.02;;;;;;;33.48;23.77;98694.50;5071486;28;20011;-84
2021/08/12 01:32:39;;;;;;;1.55;0.73;;;;;;;33.19;24.06;98695.94;5064083;28;20029;-83
2021/08/12 01:35:10;;;;;;;0.60;0.60;;;;;;;33.39;23.64;98681.13;5055429;28;20035;-83
2021/08/12 01:37:45;;;;;;;1.25;0.90;;;;;;;33.16;23.78;98691.22;5068634;28;20496;-84
2021/08/12 01:40:15;;;;;;;0.95;0.75;;;;;;;33.31;23.84;98694.94;5054727;28;20431;-84
2021/08/12 01:42:43;;;;;;;0.75;0.73;;;;;;;33.46;23.72;98686.47;5064632;28;20039;-83
2021/08/12 01:45:10;;;;;;;3.58;1.10;;;;;;;33.03;24.17;98693.50;5070378;28;20047;-84
2021/08/12 01:47:40;;;;;;;1.23;0.80;;;;;;;32.54;25.08;98685.25;5064264;28;20043;-84
2021/08/12 01:50:08;;;;;;;1.75;0.80;;;;;;;32.58;24.78;98683.03;5055750;28;20033;-83
2021/08/12 01:52:37;;;;;;;0.98;0.65;;;;;;;32.77;24.55;98680.91;5054205;28;20111;-84
2021/08/12 01:55:05;;;;;;;3.10;1.00;;;;;;;33.02;24.32;98688.28;5063579;28;20105;-84
2021/08/12 01:57:32;;;;;;;1.65;0.80;;;;;;;33.26;24.00;98689.88;5054353;28;20033;-84
2021/08/12 02:00:01;;;;;;;2.95;0.98;;;;;;;33.05;24.14;98690.19;5057116;28;20515;-84
2021/08/12 02:02:28;;;;;;;0.70;0.52;;;;;;;32.99;23.88;98687.16;5063076;28;20404;-84
2021/08/12 02:04:55;;;;;;;1.15;0.70;;;;;;;33.16;23.63;98690.44;5063385;28;20063;-83
2021/08/12 02:07:21;;;;;;;0.63;0.60;;;;;;;33.22;23.79;98694.97;5060693;28;20064;-84
2021/08/12 02:09:47;;;;;;;2.40;0.80;;;;;;;33.29;24.38;98693.84;5054071;28;20568;-84
2021/08/12 02:12:13;;;;;;;0.70;0.70;;;;;;;33.26;23.46;98691.94;5064473;28;20024;-83
2021/08/12 02:14:39;;;;;;;2.10;0.50;;;;;;;33.19;23.70;98687.41;5065453;28;20097;-84
2021/08/12 02:17:06;;;;;;;2.63;0.70;;;;;;;33.32;23.20;98690.03;5057385;28;20044;-83
2021/08/12 02:19:33;;;;;;;0.98;0.70;;;;;;;33.28;23.43;98683.72;5053282;28;20063;-84
2021/08/12 02:22:04;;;;;;;1.10;0.60;;;;;;;33.34;23.31;98693.97;5062238;28;20043;-83
2021/08/12 02:24:40;;;;;;;2.35;0.88;;;;;;;33.15;23.24;98692.50;5064642;28;20029;-84
2021/08/12 02:27:12;;;;;;;0.80;0.80;;;;;;;33.20;23.12;98693.88;5066738;28;20025;-83
2021/08/12 02:29:40;;;;;;;2.30;1.15;;;;;;;33.19;23.70;98700.84;5055297;28;20051;-83
2021/08/12 02:32:13;;;;;;;0.60;0.52;;;;;;;33.15;23.47;98688.84;5061974;28;20071;-83
2021/08/12 02:34:41;;;;;;;1.27;0.47;;;;;;;32.98;23.79;98684.81;5059044;28;20036;-83
2021/08/12 02:37:11;;;;;;;0.60;0.60;;;;;;;32.59;24.25;98689.50;5054067;28;20562;-83
2021/08/12 02:39:38;;;;;;;1.20;0.82;;;;;;;32.61;24.14;98686.97;5053613;28;20037;-83
2021/08/12 02:42:06;;;;;;;1.50;0.80;;;;;;;32.78;23.78;98688.19;5053517;28;20107;-83
2021/08/12 02:44:33;;;;;;;1.48;0.60;;;;;;;32.98;23.95;98688.41;5055501;28;20476;-84
2021/08/12 02:47:03;;;;;;;0.88;0.60;;;;;;;33.17;23.24;98697.69;5058627;28;20044;-84
2021/08/12 02:49:31;;;;;;;0.50;0.50;;;;;;;33.19;23.36;98695.94;5056908;28;20523;-83
2021/08/12 02:52:00;;;;;;;1.13;0.68;;;;;;;33.21;23.23;98704.78;5053909;28;20099;-83
2021/08/12 02:54:29;;;;;;;1.05;0.70;;;;;;;33.21;23.25;98701.94;5053663;28;20071;-84
2021/08/12 02:56:57;;;;;;;0.68;0.60;;;;;;;33.20;23.22;98713.81;5053891;28;20090;-84
2021/08/12 02:59:24;;;;;;;1.20;0.70;;;;;;;33.17;23.22;98703.38;5053645;28;20047;-84
2021/08/12 03:01:53;;;;;;;1.20;0.63;;;;;;;33.12;23.17;98701.19;5062092;28;20045;-83
2021/08/12 03:04:20;;;;;;;0.75;0.68;;;;;;;32.87;23.39;98708.06;5053372;28;20037;-84
2021/08/12 03:06:48;;;;;;;1.48;0.93;;;;;;;32.57;23.77;98700.56;5064670;28;20036;-84
2021/08/12 03:09:16;;;;;;;0.80;0.63;;;;;;;32.69;23.85;98702.44;5052929;28;20041;-84
2021/08/12 03:11:43;;;;;;;1.20;0.82;;;;;;;32.70;23.89;98706.84;5065020;28;20515;-83
2021/08/12 03:14:10;;;;;;;1.00;0.70;;;;;;;32.83;23.79;98698.94;5060439;28;20485;-84
2021/08/12 03:16:38;;;;;;;0.95;0.70;;;;;;;32.95;23.36;98703.63;5053413;28;20628;-84
2021/08/12 03:19:05;;;;;;;1.13;0.70;;;;;;;32.98;23.20;98696.94;5054256;28;20064;-83
2021/08/12 03:21:31;;;;;;;0.77;0.60;;;;;;;32.74;23.14;98696.13;5060519;28;20388;-83
2021/08/12 03:24:02;;;;;;;0.95;0.85;;;;;;;32.74;23.40;98699.72;5057517;28;20529;-83
2021/08/12 03:26:28;;;;;;;;;;;;;;;32.72;23.54;98701.50;5067334;28;20045;-83
2021/08/12 03:28:54;;;;;;;1.10;0.70;;;;;;;33.00;23.05;98699.34;5066660;28;19917;-83
2021/08/12 03:31:20;;;;;;;2.05;0.85;;;;;;;32.98;23.04;98701.88;5056014;28;20025;-83
2021/08/12 03:33:46;;;;;;;0.60;0.60;;;;;;;32.97;23.24;98714.50;5059945;28;20397;-83
2021/08/12 03:36:12;;;;;;;0.73;0.47;;;;;;;32.92;23.22;98713.13;5060157;28;20128;-83
2021/08/12 03:38:38;;;;;;;0.40;0.40;;;;;;;32.94;23.25;98707.72;5062126;28;20036;-83
2021/08/12 03:41:05;;;;;;;0.60;0.55;;;;;;;32.92;23.07;98707.41;5058146;28;20069;-83
2021/08/12 03:43:32;;;;;;;0.70;0.45;;;;;;;32.79;23.48;98706.84;5062002;28;20036;-83
2021/08/12 03:45:58;;;;;;;0.50;0.50;;;;;;;32.77;23.02;98708.59;5066187;28;20470;-83
2021/08/12 03:48:24;;;;;;;1.13;0.55;;;;;;;32.86;22.91;98702.88;5064416;28;20056;-83
2021/08/12 03:50:50;;;;;;;0.70;0.60;;;;;;;32.79;22.92;98706.84;5057437;28;20036;-83
2021/08/12 03:53:16;;;;;;;2.28;0.98;;;;;;;32.70;23.43;98721.88;5058870;28;20035;-83
2021/08/12 03:55:42;;;;;;;0.68;0.52;;;;;;;32.59;23.45;98717.94;5069550;28;20759;-83
2021/08/12 03:58:08;;;;;;;0.70;0.55;;;;;;;32.45;23.68;98724.25;5074279;28;20033;-83
2021/08/12 04:00:34;;;;;;;0.68;0.60;;;;;;;32.65;23.19;98725.34;5065155;28;20040;-83
2021/08/12 04:03:00;;;;;;;0.93;0.80;;;;;;;32.95;22.96;98728.44;5056332;28;20036;-83
2021/08/12 04:05:26;;;;;;;0.80;0.80;;;;;;;33.19;23.42;98732.94;5057322;28;20036;-83
2021/08/12 04:07:52;;;;;;;0.88;0.75;;;;;;;33.08;23.56;98729.03;5060131;28;20087;-83
2021/08/12 04:10:18;;;;;;;0.70;0.50;;;;;;;32.98;23.21;98727.50;5060377;28;20108;-83
2021/08/12 04:12:44;;;;;;;1.08;0.82;;;;;;;33.34;23.29;98724.50;5056282;28;20041;-83
2021/08/12 04:15:11;;;;;;;0.50;0.50;;;;;;;33.65;23.08;98732.72;5067861;28;20062;-82
2021/08/12 04:17:37;;;;;;;0.68;0.65;;;;;;;33.94;23.19;98735.69;5063831;28;20032;-83
2021/08/12 04:20:03;;;;;;;1.33;0.50;;;;;;;33.87;23.28;98728.28;5064534;28;20077;-83
2021/08/12 04:22:29;;;;;;;0.68;0.60;;;;;;;33.94;23.12;98739.31;5057090;28;20171;-83
2021/08/12 04:24:55;;;;;;;0.77;0.68;;;;;;;34.31;23.29;98736.97;5056503;28;20380;-83
2021/08/12 04:27:22;;;;;;;0.95;0.80;;;;;;;34.53;23.15;98728.09;5056145;28;20037;-83
2021/08/12 04:29:48;;;;;;;1.23;0.88;;;;;;;34.37;23.56;98740.75;5056146;28;20075;-83
2021/08/12 04:32:14;;;;;;;1.65;0.77;;;;;;;34.26;23.88;98736.88;5066943;28;20021;-83
2021/08/12 04:34:40;;;;;;;1.73;0.80;;;;;;;34.26;24.14;98734.81;5069668;28;20028;-83
2021/08/12 04:37:06;;;;;;;1.60;0.75;;;;;;;34.26;23.95;98740.50;5072774;28;20039;-83
2021/08/12 04:39:32;;;;;;;4.10;1.20;;;;;;;34.23;24.33;98740.72;5074348;28;20488;-83
2021/08/12 04:41:58;;;;;;;1.20;1.00;;;;;;;34.27;24.40;98735.59;5075424;28;20047;-83
2021/08/12 04:44:24;;;;;;;1.55;1.10;;;;;;;34.37;24.57;98740.75;5064383;28;20048;-83
2021/08/12 04:46:50;;;;;;;1.02;0.80;;;;;;;34.41;24.51;98741.34;5069375;28;20044;-84
2021/08/12 04:49:16;;;;;;;0.80;0.80;;;;;;;34.42;24.51;98745.78;5063947;28;20033;-84
2021/08/12 04:51:44;;;;;;;1.60;1.02;;;;;;;34.48;24.82;98745.88;5055766;28;20384;-84
2021/08/12 04:54:11;;;;;;;13.15;1.17;;;;;;;34.69;25.20;98753.28;5055767;28;20036;-84
2021/08/12 04:56:37;;;;;;;1.30;0.80;;;;;;;34.80;24.73;98747.00;5060815;28;20476;-83
2021/08/12 04:59:03;;;;;;;1.80;1.25;;;;;;;34.85;24.69;98752.00;5055678;28;20033;-83
2021/08/12 05:01:29;;;;;;;1.05;0.70;;;;;;;34.97;24.19;98756.63;5058675;28;20037;-83
2021/08/12 05:03:55;;;;;;;1.30;1.05;;;;;;;35.03;24.95;98752.59;5064956;28;20037;-83
2021/08/12 05:06:21;;;;;;;3.90;0.80;;;;;;;35.33;24.25;98764.78;5067787;28;20062;-83
2021/08/12 05:08:47;;;;;;;1.42;0.90;;;;;;;35.56;24.64;98758.16;5063706;28;20037;-83
2021/08/12 05:11:13;;;;;;;2.53;0.60;;;;;;;35.90;23.93;98760.19;5062082;28;20037;-82
2021/08/12 05:13:39;;;;;;;1.60;0.80;;;;;;;36.22;23.92;98766.88;5055515;28;20033;-82
2021/08/12 05:16:06;;;;;;;1.25;0.80;;;;;;;36.31;23.33;98771.66;5055190;28;20099;-82
2021/08/12 05:18:32;;;;;;;1.50;0.93;;;;;;;36.44;23.59;98772.06;5063573;28;20059;-82
2021/08/12 05:20:58;;;;;;;2.25;0.98;;;;;;;36.68;22.82;98772.63;5071937;28;20065;-82
2021/08/12 05:23:24;;;;;;;1.23;0.90;;;;;;;36.90;22.95;98769.94;5072538;28;20025;-83
2021/08/12 05:25:50;;;;;;;0.98;0.70;;;;;;;37.03;22.91;98773.25;5072969;28;20027;-82
2021/08/12 05:28:16;;;;;;;0.73;0.63;;;;;;;37.08;22.68;98766.00;5071659;28;20033;-83
2021/08/12 05:30:42;;;;;;;3.10;1.17;;;;;;;37.10;21.90;98769.94;5072547;28;20029;-83
2021/08/12 05:33:08;;;;;;;1.00;0.90;;;;;;;36.75;23.08;98772.16;5073130;28;20417;-83
2021/08/12 05:35:35;;;;;;;1.65;1.10;;;;;;;35.98;24.45;98784.25;5073319;28;20035;-83
2021/08/12 05:38:01;;;;;;;2.22;1.10;;;;;;;35.80;23.74;98770.19;5074133;28;20029;-83
2021/08/12 05:40:27;;;;;;;0.75;0.75;;;;;;;35.67;24.25;98775.47;5074155;28;20365;-83
2021/08/12 05:42:53;;;;;;;1.45;1.20;;;;;;;35.16;24.85;98772.28;5074194;28;20484;-83
2021/08/12 05:45:19;;;;;;;1.25;1.08;;;;;;;35.19;25.21;98771.31;5054622;28;20400;-83
2021/08/12 05:47:45;;;;;;;3.65;1.13;;;;;;;35.31;24.63;98765.28;5053783;28;20049;-83
2021/08/12 05:50:11;;;;;;;1.52;1.15;;;;;;;35.55;24.42;98775.78;5054140;28;20033;-83
2021/08/12 05:52:37;;;;;;;1.60;1.00;;;;;;;35.57;23.44;98774.00;5066811;28;20112;-83
2021/08/12 05:55:05;;;;;;;2.25;1.05;;;;;;;35.78;23.75;98772.00;5074050;28;20032;-83
2021/08/12 05:57:31;;;;;;;1.88;1.17;;;;;;;36.04;23.60;98773.66;5073911;28;20035;-83
2021/08/12 05:59:57;;;;;;;1.38;1.00;;;;;;;36.62;23.54;98768.91;5074053;28;20103;-83
2021/08/12 06:02:23;;;;;;;4.32;1.30;;;;;;;37.12;22.61;98769.41;5058626;28;20060;-83
2021/08/12 06:04:49;;;;;;;0.95;0.75;;;;;;;37.43;21.76;98760.03;5056876;28;20083;-83
2021/08/12 06:07:15;;;;;;;2.00;0.95;;;;;;;37.55;21.56;98764.56;5073683;28;20028;-83
2021/08/12 06:09:41;;;;;;;1.42;0.95;;;;;;;37.72;21.75;98769.09;5073516;28;20036;-83
2021/08/12 06:12:08;;;;;;;1.83;0.93;;;;;;;37.85;21.42;98769.47;5073484;28;20036;-83
2021/08/12 06:14:34;;;;;;;1.17;1.00;;;;;;;37.54;21.28;98777.31;5073623;28;20048;-83
2021/08/12 06:17:00;;;;;;;1.25;0.93;;;;;;;37.09;21.23;98784.72;5073665;28;20033;-83
2021/08/12 06:19:26;;;;;;;1.15;0.82;;;;;;;37.00;22.29;98784.91;5073485;28;20024;-83
2021/08/12 06:21:52;;;;;;;1.42;1.02;;;;;;;37.16;22.40;98781.41;5073446;28;20419;-83
2021/08/12 06:24:18;;;;;;;2.17;1.40;;;;;;;37.37;22.28;98782.91;5073831;28;20087;-83
2021/08/12 06:26:44;;;;;;;1.00;0.90;;;;;;;37.55;22.44;98785.41;5071902;28;20043;-83
2021/08/12 06:29:11;;;;;;;1.55;1.00;;;;;;;37.67;21.16;98789.13;5073635;28;20035;-83
2021/08/12 06:31:38;;;;;;;4.15;1.20;;;;;;;37.71;21.58;98781.88;5073390;28;20388;-82
2021/08/12 06:34:04;;;;;;;2.05;1.00;;;;;;;37.78;21.22;98787.13;5073487;28;20059;-83
2021/08/12 06:36:32;;;;;;;1.10;1.00;;;;;;;37.32;21.77;98790.13;5073731;28;20036;-83
2021/08/12 06:39:01;;;;;;;2.63;1.13;;;;;;;37.56;22.25;98781.22;5065762;28;20455;-83
2021/08/12 06:41:29;;;;;;;1.20;0.90;;;;;;;37.76;21.99;98783.19;5052862;28;20033;-83
2021/08/12 06:43:55;;;;;;;2.95;1.08;;;;;;;37.97;21.43;98788.28;5068272;28;20107;-84
2021/08/12 06:46:21;;;;;;;1.38;1.17;;;;;;;38.04;21.78;98782.06;5073395;28;20476;-83
2021/08/12 06:48:47;;;;;;;1.67;0.90;;;;;;;38.24;21.89;98783.19;5073091;28;20417;-83
2021/08/12 06:51:13;;;;;;;2.97;0.90;;;;;;;38.42;21.81;98785.63;5073089;28;20381;-83
2021/08/12 06:53:40;;;;;;;2.17;0.93;;;;;;;38.17;21.43;98790.22;5073138;28;20036;-83
2021/08/12 06:56:07;;;;;;;1.08;0.90;;;;;;;38.11;22.20;98795.16;5072986;28;20029;-83
2021/08/12 06:58:33;;;;;;;1.27;1.00;;;;;;;38.12;20.67;98793.03;5073107;28;20043;-83
2021/08/12 07:00:59;;;;;;;3.13;1.30;;;;;;;37.90;20.83;98793.72;5071613;28;20036;-83
2021/08/12 07:03:25;;;;;;;1.75;0.90;;;;;;;37.92;21.45;98789.06;5073197;28;20028;-83
2021/08/12 07:05:51;;;;;;;1.20;0.80;;;;;;;38.14;20.69;98787.59;5072909;28;20036;-83
2021/08/12 07:08:17;;;;;;;1.67;0.90;;;;;;;38.32;21.31;98790.84;5072965;28;20029;-83
2021/08/12 07:10:44;;;;;;;1.45;0.80;;;;;;;37.48;20.22;98790.81;5072738;28;20483;-82
2021/08/12 07:13:10;;;;;;;2.45;1.10;;;;;;;36.86;21.78;98797.25;5071316;28;20040;-83
2021/08/12 07:15:36;;;;;;;1.10;1.00;;;;;;;36.78;22.60;98793.28;5072640;28;20028;-83
2021/08/12 07:18:02;;;;;;;1.40;0.90;;;;;;;36.77;22.22;98795.34;5076459;28;20499;-83
2021/08/12 07:20:28;;;;;;;1.42;0.90;;;;;;;37.06;22.10;98797.97;5076883;28;20024;-83
2021/08/12 07:22:54;;;;;;;1.95;1.10;;;;;;;36.92;22.37;98807.50;5076618;28;20072;-83
2021/08/12 07:25:21;;;;;;;3.10;0.90;;;;;;;37.25;21.61;98801.31;5076505;28;20025;-83
2021/08/12 07:27:49;;;;;;;1.30;0.93;;;;;;;36.79;22.31;98801.34;5076840;28;20107;-83
2021/08/12 07:30:16;;;;;;;1.77;0.90;;;;;;;35.99;23.17;98802.16;5076911;28;20078;-83
2021/08/12 07:32:42;;;;;;;2.13;1.00;;;;;;;35.96;22.85;98803.16;5076786;28;20032;-83
2021/08/12 07:35:08;;;;;;;1.10;1.00;;;;;;;35.81;21.99;98803.22;5076588;28;20392;-82
2021/08/12 07:37:35;;;;;;;2.38;1.20;;;;;;;35.87;22.11;98806.91;5076569;28;20489;-82
2021/08/12 07:40:01;;;;;;;3.33;1.10;;;;;;;36.78;21.71;98804.72;5076138;28;20054;-82
2021/08/12 07:42:27;;;;;;;1.58;1.00;;;;;;;37.19;21.63;98806.19;5076442;28;20496;-83
2021/08/12 07:44:53;;;;;;;1.30;1.10;;;;;;;37.33;22.50;98806.06;5075862;28;20071;-83
2021/08/12 07:47:19;;;;;;;1.35;0.90;;;;;;;37.48;22.42;98805.94;5076246;28;20049;-83
2021/08/12 07:49:45;;;;;;;1.05;1.00;;;;;;;36.98;20.63;98814.06;5076492;28;20057;-83
2021/08/12 07:52:11;;;;;;;2.03;1.00;;;;;;;37.28;21.28;98808.84;5076113;28;20043;-83
2021/08/12 07:54:38;;;;;;;2.17;0.90;;;;;;;36.89;20.87;98811.34;5075994;28;20021;-82
2021/08/12 07:57:06;;;;;;;1.77;1.08;;;;;;;35.73;22.59;98813.47;5076323;28;20052;-83
2021/08/12 07:59:32;;;;;;;1.67;1.00;;;;;;;35.73;21.47;98804.88;5061725;28;20037;-82
2021/08/12 08:01:58;;;;;;;1.00;0.90;;;;;;;35.84;19.29;98813.66;5056079;28;20029;-83
2021/08/12 08:04:25;;;;;;;1.00;0.90;;;;;;;36.49;20.86;98820.78;5056414;28;20043;-82
2021/08/12 08:06:51;;;;;;;1.20;0.98;;;;;;;36.72;19.49;98818.97;5076136;28;20032;-83
2021/08/12 08:09:17;;;;;;;1.08;0.80;;;;;;;37.07;20.15;98822.47;5074365;28;20054;-83
2021/08/12 08:11:43;;;;;;;0.88;0.80;;;;;;;36.45;20.19;98819.44;5076414;28;20040;-83
2021/08/12 08:14:09;;;;;;;1.95;0.80;;;;;;;35.53;22.81;98830.56;5075493;28;20089;-83
2021/08/12 08:16:35;;;;;;;2.42;0.80;;;;;;;35.48;21.61;98836.16;5074771;28;20040;-83
2021/08/12 08:19:01;;;;;;;1.15;1.00;;;;;;;35.91;20.80;98838.97;5076066;28;20025;-83
2021/08/12 08:21:29;;;;;;;1.45;0.82;;;;;;;36.38;21.46;98828.44;5076149;28;20029;-83
2021/08/12 08:23:55;;;;;;;1.60;0.98;;;;;;;36.74;20.02;98827.81;5075648;28;20025;-82
2021/08/12 08:26:22;;;;;;;0.90;0.70;;;;;;;36.65;20.44;98836.56;5074123;28;20056;-83
2021/08/12 08:28:48;;;;;;;1.33;1.20;;;;;;;35.43;21.16;98832.72;5074970;28;20040;-82
2021/08/12 08:31:14;;;;;;;1.77;1.10;;;;;;;36.02;19.68;98836.28;5075709;28;20032;-82
2021/08/12 08:33:40;;;;;;;2.60;1.10;;;;;;;36.12;20.16;98847.59;5075722;28;20035;-82
2021/08/12 08:36:06;;;;;;;0.85;0.80;;;;;;;35.98;20.32;98844.28;5067950;28;20043;-83
2021/08/12 08:38:33;;;;;;;1.55;1.45;;;;;;;35.64;19.98;98835.69;5071416;28;20035;-83
2021/08/12 08:41:00;;;;;;;1.42;1.15;;;;;;;36.80;20.34;98842.22;5075865;28;20071;-83
2021/08/12 08:43:29;;;;;;;1.52;0.90;;;;;;;37.42;18.75;98839.47;5072884;28;20032;-83
2021/08/12 08:45:56;;;;;;;0.95;0.80;;;;;;;37.87;19.40;98832.81;5075195;28;20537;-82
2021/08/12 08:48:25;;;;;;;0.77;0.77;;;;;;;38.47;18.31;98828.72;5075131;28;20055;-83
2021/08/12 08:50:52;;;;;;;1.10;0.70;;;;;;;38.10;17.87;98836.59;5074061;28;20108;-83
2021/08/12 08:53:19;;;;;;;0.80;0.80;;;;;;;36.81;19.50;98841.69;5065331;28;20087;-83
2021/08/12 08:55:46;;;;;;;3.83;0.90;;;;;;;36.46;19.09;98835.31;5074389;28;20033;-83
2021/08/12 08:58:13;;;;;;;1.00;0.90;;;;;;;36.76;19.04;98841.66;5074788;28;20028;-83
2021/08/12 09:00:39;;;;;;;0.93;0.88;;;;;;;36.33;18.91;98835.66;5055182;28;20036;-83
2021/08/12 09:03:06;;;;;;;1.25;0.93;;;;;;;34.86;22.67;98836.34;5065549;28;20548;-83
2021/08/12 09:05:33;;;;;;;1.10;0.90;;;;;;;36.31;20.12;98834.59;5074603;28;20091;-83
2021/08/12 09:08:00;;;;;;;0.90;0.90;;;;;;;36.27;19.89;98843.38;5074766;28;20024;-83
2021/08/12 09:10:26;;;;;;;0.80;0.80;;;;;;;36.32;18.74;98842.66;5075106;28;20032;-83
2021/08/12 09:12:52;;;;;;;0.93;0.60;;;;;;;36.22;18.87;98844.09;5075293;28;20430;-83
2021/08/12 09:15:23;;;;;;;1.02;0.93;;;;;;;36.55;17.95;98853.13;5073206;28;20040;-82
2021/08/12 09:17:50;;;;;;;;;;;;;;;37.14;17.62;98841.28;5075362;28;20111;-83
2021/08/12 09:20:21;;;;;;;1.30;0.90;;;;;;;37.66;17.65;98848.53;5074708;28;19908;-83
2021/08/12 09:22:52;;;;;;;0.95;0.80;;;;;;;37.69;17.54;98850.41;5074315;28;20127;-83
2021/08/12 09:25:36;;;;;;;0.68;0.60;;;;;;;37.21;17.24;98849.41;5074406;28;20498;-82
2021/08/12 09:28:26;;;;;;;0.90;0.85;;;;;;;38.08;17.88;98838.41;5073131;28;20474;-83
2021/08/12 09:31:01;;;;;;;0.77;0.60;;;;;;;38.82;17.75;98847.63;5057343;28;20053;-83
2021/08/12 09:33:42;;;;;;;0.95;0.70;;;;;;;37.98;19.03;98847.22;5065753;28;20036;-83
2021/08/12 09:36:34;;;;;;;0.65;0.50;;;;;;;38.21;19.33;98848.13;5084138;28;20024;-83
2021/08/12 09:39:19;;;;;;;0.40;0.40;;;;;;;38.19;17.62;98842.13;5068436;28;20086;-83
2021/08/12 09:41:53;;;;;;;0.63;0.47;;;;;;;38.64;18.29;98838.16;5073836;28;20039;-83
2021/08/12 09:44:35;;;;;;;1.05;0.88;;;;;;;38.67;18.25;98842.84;5063862;28;20072;-83
2021/08/12 09:47:13;;;;;;;1.08;0.50;;;;;;;38.51;18.39;98848.56;5054048;28;20413;-83
2021/08/12 09:49:50;;;;;;;1.20;0.63;;;;;;;38.75;17.22;98843.19;5057962;28;20385;-83
2021/08/12 09:52:28;;;;;;;1.20;0.63;;;;;;;39.01;17.36;98851.59;5074018;28;20051;-83
2021/08/12 09:55:10;;;;;;;1.02;0.63;;;;;;;39.21;18.02;98854.28;5074142;28;20370;-83
2021/08/12 09:57:45;;;;;;;0.55;0.55;;;;;;;39.29;16.43;98850.38;5073925;28;20029;-83
2021/08/12 10:00:35;;;;;;;1.38;0.73;;;;;;;38.90;17.17;98854.44;5073906;28;20492;-83
2021/08/12 10:03:19;;;;;;;0.73;0.60;;;;;;;38.15;18.29;98850.19;5073747;28;20029;-82
2021/08/12 10:05:45;;;;;;;0.90;0.50;;;;;;;37.79;17.13;98836.63;5073575;28;20032;-83
2021/08/12 10:08:11;;;;;;;1.27;0.90;;;;;;;36.60;19.50;98843.03;5073967;28;20029;-83
2021/08/12 10:10:38;;;;;;;1.00;0.90;;;;;;;37.01;19.20;98847.44;5073713;28;20113;-83
2021/08/12 10:13:04;;;;;;;1.77;0.90;;;;;;;37.45;18.37;98847.06;5073705;28;20492;-83
2021/08/12 10:15:33;;;;;;;1.92;1.02;;;;;;;37.21;17.81;98843.69;5073157;28;20515;-83
2021/08/12 10:18:01;;;;;;;0.95;0.70;;;;;;;37.33;18.25;98834.69;5073602;28;20032;-82
2021/08/12 10:20:30;;;;;;;0.95;0.80;;;;;;;37.76;17.82;98846.28;5073304;28;20039;-83
2021/08/12 10:22:59;;;;;;;1.05;0.90;;;;;;;38.12;18.17;98848.34;5073635;28;20377;-83
2021/08/12 10:25:26;;;;;;;2.00;1.23;;;;;;;37.02;19.39;98848.97;5073361;28;20032;-83
2021/08/12 10:27:55;;;;;;;1.20;1.10;;;;;;;36.60;18.73;98845.88;5073380;28;20036;-82
2021/08/12 10:30:23;;;;;;;1.25;1.00;;;;;;;37.11;18.75;98840.22;5067747;28;20028;-83
2021/08/12 10:32:54;;;;;;;1.13;0.93;;;;;;;37.39;17.95;98849.88;5053409;28;20445;-83
2021/08/12 10:35:21;;;;;;;1.20;1.10;;;;;;;36.80;19.69;98847.94;5053180;28;20048;-83
2021/08/12 10:37:48;;;;;;;0.93;0.73;;;;;;;36.62;19.81;98852.69;5061002;28;20531;-83
2021/08/12 10:40:15;;;;;;;2.10;1.38;;;;;;;37.53;18.41;98845.28;5072909;28;20025;-83
2021/08/12 10:42:47;;;;;;;1.15;1.05;;;;;;;37.48;17.93;98840.31;5073278;28;20440;-83
2021/08/12 10:45:18;;;;;;;1.75;0.95;;;;;;;38.60;16.82;98839.72;5072737;28;20033;-82
2021/08/12 10:47:56;;;;;;;1.05;0.90;;;;;;;38.27;16.27;98837.50;5072808;28;20409;-83
2021/08/12 10:50:35;;;;;;;0.80;0.80;;;;;;;38.16;17.75;98840.25;5073086;28;20045;-83
2021/08/12 10:53:04;;;;;;;1.38;0.75;;;;;;;38.14;17.83;98842.88;5068164;28;20519;-83
2021/08/12 10:55:31;;;;;;;1.00;0.70;;;;;;;37.88;16.56;98831.50;5055540;28;20033;-83
2021/08/12 10:58:19;;;;;;;1.25;0.80;;;;;;;37.84;17.26;98833.03;5054817;28;20477;-83
2021/08/12 11:00:50;;;;;;;0.50;0.50;;;;;;;38.34;17.79;98841.97;5053045;28;20052;-83
2021/08/12 11:03:37;;;;;;;1.63;0.77;;;;;;;39.40;17.81;98832.31;5060054;28;20029;-82
2021/08/12 11:06:06;;;;;;;0.68;0.63;;;;;;;39.83;16.97;98842.25;5073180;28;20029;-83
2021/08/12 11:08:57;;;;;;;0.87;0.87;;;;;;;39.65;16.93;98834.19;5069027;28;20067;-83
2021/08/12 11:11:26;;;;;;;1.75;1.05;;;;;;;39.62;17.73;98840.97;5068573;28;20064;-83
2021/08/12 11:13:55;;;;;;;2.38;1.60;;;;;;;35.33;20.31;98850.47;5073340;28;20133;-83
2021/08/12 11:16:45;;;;;;;1.95;1.20;;;;;;;34.14;22.22;98849.13;5072786;28;20040;-83
2021/08/12 11:19:23;;;;;;;1.10;1.00;;;;;;;34.96;20.48;98850.03;5072876;28;20043;-83
2021/08/12 11:21:51;;;;;;;2.15;1.30;;;;;;;35.13;22.42;98851.16;5072545;28;20439;-82
2021/08/12 11:24:40;;;;;;;1.45;1.00;;;;;;;34.89;21.57;98850.44;5073007;28;20086;-82
2021/08/12 11:27:06;;;;;;;1.20;1.10;;;;;;;35.96;20.66;98846.03;5067568;28;20162;-82
2021/08/12 11:29:36;;;;;;;2.88;2.10;;;;;;;36.53;19.56;98835.66;5072811;28;20035;-82
2021/08/12 11:32:09;;;;;;;1.08;0.98;;;;;;;36.20;21.07;98852.38;5072377;28;20503;-82
2021/08/12 11:34:45;;;;;;;1.63;1.48;;;;;;;35.33;20.54;98854.13;5063132;28;20032;-82
2021/08/12 11:37:44;;;;;;;1.88;1.13;;;;;;;34.14;21.37;98852.75;5059565;28;20020;-83
2021/08/12 11:40:11;;;;;;;1.27;1.17;;;;;;;34.31;21.79;98847.41;5039590;28;20496;-83